Time;durP1;ratioP1;P1;durP2;ratioP2;P2;SDS_P1;SDS_P2;PMS_P1;PMS_P2;Temp;Humidity;BMP_temperature;BMP_pressure;BME280_temperature;BME280_humidity;BME280_pressure;Samples;Min_cycle;Max_cycle;Signal;HPM_P1;HPM_P2
2023/12/08 00:00:49;;;;;;;132.13;46.88;;;9.60;99.90;;;8.90;100.00;100270.38;4154588;28;20026;-78
2023/12/08 00:02:50;;;;;;;141.40;52.95;;;9.60;99.90;;;8.89;100.00;100268.75;4137013;28;20026;-78
2023/12/08 00:04:51;;;;;;;147.43;57.50;;;9.60;99.90;;;8.85;100.00;100270.03;4159258;28;20029;-78
2023/12/08 00:06:52;;;;;;;132.38;58.05;;;9.60;99.90;;;8.83;100.00;100272.00;4154335;28;20033;-78
2023/12/08 00:08:53;;;;;;;116.65;47.65;;;9.60;99.90;;;8.71;100.00;100254.84;4154582;28;20026;-78
2023/12/08 00:10:53;;;;;;;97.50;38.70;;;9.50;99.90;;;8.68;100.00;100255.16;4169475;28;20432;-78
2023/12/08 00:12:54;;;;;;;81.32;30.80;;;9.50;99.90;;;8.70;100.00;100261.06;4169558;28;20393;-78
2023/12/08 00:14:55;;;;;;;109.40;36.92;;;9.50;99.90;;;8.72;100.00;100269.63;4137156;28;20026;-78
2023/12/08 00:16:56;;;;;;;77.57;33.97;;;9.50;99.90;;;8.63;100.00;100260.03;4153038;28;20050;-78
2023/12/08 00:18:57;;;;;;;57.20;22.90;;;9.50;99.90;;;8.67;100.00;100269.28;4154331;28;20032;-78
2023/12/08 00:20:58;;;;;;;61.05;20.92;;;9.40;99.90;;;8.58;100.00;100258.84;4153946;28;20030;-78
2023/12/08 00:22:59;;;;;;;94.80;31.23;;;9.40;99.90;;;8.58;100.00;100261.47;4154276;28;20038;-78
2023/12/08 00:24:59;;;;;;;77.97;20.83;;;9.40;99.90;;;8.60;100.00;100270.06;4153123;28;20022;-78
2023/12/08 00:27:00;;;;;;;68.50;15.93;;;9.30;99.90;;;8.56;100.00;100269.53;4185898;28;20027;-77
2023/12/08 00:29:01;;;;;;;65.35;17.90;;;9.20;99.90;;;8.50;100.00;100264.91;4158345;28;20093;-78
2023/12/08 00:31:02;;;;;;;70.53;22.35;;;9.20;99.90;;;8.43;100.00;100268.28;4185645;28;20037;-78
2023/12/08 00:33:03;;;;;;;97.60;35.28;;;9.10;99.90;;;8.32;100.00;100249.16;4152718;28;20030;-78
2023/12/08 00:35:05;;;;;;;85.45;28.52;;;9.10;99.90;;;8.37;100.00;100264.47;4154150;28;20083;-78
2023/12/08 00:37:05;;;;;;;87.85;24.42;;;9.10;99.90;;;8.34;100.00;100260.34;4153763;28;20156;-78
2023/12/08 00:39:07;;;;;;;77.63;23.20;;;9.10;99.90;;;8.23;100.00;100246.59;4154157;28;20022;-78
2023/12/08 00:41:09;;;;;;;81.00;26.45;;;9.10;99.90;;;8.25;100.00;100250.72;4154360;28;20211;-78
2023/12/08 00:43:10;;;;;;;88.68;28.50;;;9.10;99.90;;;8.28;100.00;100254.88;4153997;28;20495;-78
2023/12/08 00:45:11;;;;;;;80.07;24.65;;;9.10;99.90;;;8.21;100.00;100256.44;4153787;28;20030;-78
2023/12/08 00:47:12;;;;;;;70.22;16.70;;;9.00;99.90;;;8.17;100.00;100255.91;4152689;28;20497;-78
2023/12/08 00:49:13;;;;;;;58.22;12.90;;;9.00;99.90;;;8.16;100.00;100267.41;4154170;28;20097;-78
2023/12/08 00:51:14;;;;;;;40.40;8.95;;;8.90;99.90;;;8.05;100.00;100253.69;4152912;28;20030;-78
2023/12/08 00:53:15;;;;;;;51.60;15.38;;;8.80;99.90;;;7.97;100.00;100253.63;4185689;28;20024;-78
2023/12/08 00:55:16;;;;;;;67.15;20.27;;;8.70;99.90;;;7.98;100.00;100260.50;4152651;28;20437;-78
2023/12/08 00:57:16;;;;;;;62.03;17.73;;;8.70;99.90;;;7.96;100.00;100265.91;4153787;28;20485;-78
2023/12/08 00:59:17;;;;;;;55.95;19.27;;;8.70;99.90;;;7.87;100.00;100252.84;4153720;28;20041;-78
2023/12/08 01:01:19;;;;;;;60.50;20.17;;;8.70;99.90;;;7.91;100.00;100264.72;4152451;28;20041;-78
2023/12/08 01:03:20;;;;;;;55.47;12.70;;;8.70;99.90;;;7.85;100.00;100254.81;4153770;28;20030;-78
2023/12/08 01:05:21;;;;;;;58.05;9.20;;;8.70;99.90;;;7.86;100.00;100269.59;4168680;28;20424;-78
2023/12/08 01:07:21;;;;;;;42.30;8.30;;;8.60;99.90;;;7.78;100.00;100252.78;4155500;28;20017;-78
2023/12/08 01:09:22;;;;;;;46.72;11.35;;;8.60;99.90;;;7.83;100.00;100262.84;4156626;28;20025;-78
2023/12/08 01:11:23;;;;;;;73.82;13.82;;;8.50;99.90;;;7.82;100.00;100259.38;4153802;28;20025;-78
2023/12/08 01:13:24;;;;;;;45.03;9.88;;;8.60;99.90;;;7.80;100.00;100260.50;4152426;28;20061;-78
2023/12/08 01:15:25;;;;;;;46.50;8.75;;;8.60;99.90;;;7.87;100.00;100266.00;4152003;28;20060;-78
2023/12/08 01:17:26;;;;;;;61.22;13.23;;;8.60;99.90;;;7.90;100.00;100266.53;4184965;28;20404;-78
2023/12/08 01:19:27;;;;;;;64.30;13.25;;;8.60;99.90;;;8.00;100.00;100263.81;4152161;28;20113;-78
2023/12/08 01:21:28;;;;;;;64.75;12.75;;;8.70;99.90;;;8.13;100.00;100272.13;4153146;28;20104;-78
2023/12/08 01:23:29;;;;;;;51.13;8.60;;;8.80;99.90;;;8.20;100.00;100260.88;4153267;28;20044;-78
2023/12/08 01:25:30;;;;;;;53.15;8.90;;;8.90;99.90;;;8.29;100.00;100261.78;4153364;28;20081;-78
2023/12/08 01:27:30;;;;;;;42.50;7.72;;;9.00;99.90;;;8.28;100.00;100250.44;4151973;28;20050;-78
2023/12/08 01:29:31;;;;;;;50.05;7.93;;;9.00;99.90;;;8.21;100.00;100259.88;4153316;28;20401;-78
2023/12/08 01:31:32;;;;;;;56.67;10.68;;;9.00;99.90;;;8.21;100.00;100269.59;4152092;28;20461;-78
2023/12/08 01:33:33;;;;;;;61.90;12.30;;;9.00;99.90;;;8.18;100.00;100268.06;4153151;28;20026;-78
2023/12/08 01:35:34;;;;;;;58.78;11.18;;;9.00;99.90;;;8.11;100.00;100258.31;4153229;28;20034;-78
2023/12/08 01:37:35;;;;;;;53.47;13.80;;;8.90;99.90;;;8.14;100.00;100274.63;4153017;28;20481;-78
2023/12/08 01:39:35;;;;;;;81.55;19.63;;;8.90;99.90;;;8.08;100.00;100269.13;4152023;28;20038;-78
2023/12/08 01:41:36;;;;;;;63.88;20.13;;;8.80;99.90;;;7.95;100.00;100264.25;4184759;28;20040;-78
2023/12/08 01:43:37;;;;;;;64.60;16.15;;;8.80;99.90;;;7.98;100.00;100273.63;4152097;28;20029;-78
2023/12/08 01:45:40;;;;;;;64.20;15.88;;;8.70;99.90;;;7.96;100.00;100265.09;4156750;28;20041;-78
2023/12/08 01:47:43;;;;;;;63.13;12.05;;;8.80;99.90;;;7.92;100.00;100267.19;4153043;28;20026;-78
2023/12/08 01:49:44;;;;;;;57.92;10.05;;;8.70;99.90;;;7.90;100.00;100270.94;4151775;28;20022;-78
2023/12/08 01:51:47;;;;;;;63.00;11.27;;;8.70;99.90;;;7.86;100.00;100273.03;4168125;28;20484;-78
2023/12/08 01:53:48;;;;;;;59.35;9.23;;;8.70;99.90;;;7.91;100.00;100285.72;4184920;28;20056;-78
2023/12/08 01:55:49;;;;;;;38.17;6.32;;;8.70;99.90;;;7.93;100.00;100287.22;4153164;28;20036;-78
2023/12/08 01:57:50;;;;;;;67.97;9.77;;;8.80;99.90;;;7.92;100.00;100295.25;4167826;28;20025;-79
2023/12/08 01:59:52;;;;;;;44.72;7.95;;;8.70;99.90;;;7.92;100.00;100297.88;4151750;28;20454;-79
2023/12/08 02:01:53;;;;;;;53.20;9.00;;;8.70;99.90;;;7.87;100.00;100292.25;4168125;28;20036;-78
2023/12/08 02:03:55;;;;;;;52.22;8.15;;;8.70;99.90;;;7.95;100.00;100294.94;4135486;28;20057;-79
2023/12/08 02:05:56;;;;;;;47.25;7.43;;;8.70;99.90;;;7.89;100.00;100296.38;4152421;28;20096;-79
2023/12/08 02:07:57;;;;;;;62.45;9.63;;;8.70;99.90;;;7.95;100.00;100298.41;4151403;28;20026;-79
2023/12/08 02:09:58;;;;;;;51.13;8.73;;;8.80;99.90;;;8.02;100.00;100291.59;4167837;28;20574;-78
2023/12/08 02:11:59;;;;;;;57.95;9.15;;;8.90;99.90;;;8.02;100.00;100282.88;4152718;28;20030;-78
2023/12/08 02:14:00;;;;;;;52.63;6.72;;;8.90;99.90;;;8.17;100.00;100297.13;4152842;28;20033;-78
2023/12/08 02:16:11;;;;;;;49.45;7.28;;;8.90;99.90;;;8.25;100.00;100297.19;4151064;28;20203;-78
2023/12/08 02:18:14;;;;;;;67.90;8.35;;;9.00;99.90;;;8.32;100.00;100293.00;4151615;28;20046;-78
2023/12/08 02:20:16;;;;;;;61.93;9.40;;;9.00;99.90;;;8.36;100.00;100281.22;4151471;28;20066;-78
2023/12/08 02:22:18;;;;;;;46.63;10.00;;;9.10;99.90;;;8.37;100.00;100287.28;4152643;28;20520;-78
2023/12/08 02:24:19;;;;;;;54.53;6.90;;;9.10;99.90;;;8.29;100.00;100296.78;4152419;28;20042;-79
2023/12/08 02:26:20;;;;;;;58.72;7.38;;;9.00;99.90;;;8.21;100.00;100294.03;4135096;28;20086;-79
2023/12/08 02:28:21;;;;;;;57.92;8.48;;;9.00;99.90;;;8.09;100.00;100283.94;4151523;28;20030;-78
2023/12/08 02:30:22;;;;;;;46.22;8.73;;;8.90;99.90;;;8.15;100.00;100299.88;4151277;28;20093;-78
2023/12/08 02:32:39;;;;;;;50.47;11.00;;;8.90;99.90;;;8.12;100.00;100292.31;4152236;28;20029;-78
2023/12/08 02:34:41;;;;;;;57.28;11.10;;;8.90;99.90;;;8.02;100.00;100290.75;4151339;28;20026;-78
2023/12/08 02:36:48;;;;;;;41.45;8.85;;;8.80;99.90;;;7.93;100.00;100275.91;4151048;28;20025;-78
2023/12/08 02:38:51;;;;;;;45.35;7.40;;;8.80;99.90;;;7.90;100.00;100278.81;4135114;28;20522;-78
2023/12/08 02:40:53;;;;;;;56.55;7.50;;;8.70;99.90;;;7.97;100.00;100287.75;4151319;28;20031;-78
2023/12/08 02:42:54;;;;;;;49.60;7.28;;;8.80;99.90;;;7.93;100.00;100274.09;4152472;28;20060;-78
2023/12/08 02:44:55;;;;;;;55.38;8.00;;;8.70;99.90;;;7.88;100.00;100267.66;4134911;28;20101;-78
2023/12/08 02:46:56;;;;;;;39.00;6.72;;;8.70;99.90;;;7.87;100.00;100281.75;4152203;28;20478;-79
2023/12/08 02:48:57;;;;;;;40.88;6.18;;;8.70;99.90;;;7.82;100.00;100276.97;4151171;28;20486;-79
2023/12/08 02:50:58;;;;;;;46.75;5.93;;;8.60;99.90;;;7.70;100.00;100265.84;4150937;28;20094;-78
2023/12/08 02:52:58;;;;;;;51.85;10.02;;;8.50;99.90;;;7.66;100.00;100277.63;4152871;28;20025;-78
2023/12/08 02:54:59;;;;;;;40.17;6.47;;;8.50;99.90;;;7.72;100.00;100284.91;4150930;28;20037;-78
2023/12/08 02:57:00;;;;;;;30.95;5.82;;;8.50;99.90;;;7.67;100.00;100270.56;4151334;28;20029;-78
2023/12/08 02:59:01;;;;;;;38.25;6.60;;;8.40;99.90;;;7.77;100.00;100282.63;4155595;28;20025;-78
2023/12/08 03:01:02;;;;;;;32.33;6.57;;;8.50;99.90;;;7.82;100.00;100277.75;4157097;28;20116;-78
2023/12/08 03:03:03;;;;;;;24.85;4.60;;;8.60;99.90;;;7.78;100.00;100271.16;4183841;28;20021;-78
2023/12/08 03:05:04;;;;;;;30.60;4.63;;;8.60;99.90;;;7.80;100.00;100279.72;4150935;28;20040;-78
2023/12/08 03:07:05;;;;;;;36.00;4.88;;;8.50;99.90;;;7.85;100.00;100286.34;4183849;28;20017;-78
2023/12/08 03:09:06;;;;;;;37.60;5.07;;;8.50;99.90;;;7.82;100.00;100280.38;4167396;28;20566;-78
2023/12/08 03:11:07;;;;;;;44.17;6.05;;;8.50;99.90;;;7.79;100.00;100269.38;4152171;28;20436;-78
2023/12/08 03:13:07;;;;;;;34.72;5.15;;;8.60;99.90;;;7.74;100.00;100263.72;4152200;28;20026;-78
2023/12/08 03:15:09;;;;;;;35.35;5.88;;;8.50;99.90;;;7.82;100.00;100291.88;4153304;28;20038;-78
2023/12/08 03:17:09;;;;;;;36.58;7.15;;;8.50;99.90;;;7.72;100.00;100279.66;4155144;28;20140;-78
2023/12/08 03:19:10;;;;;;;40.83;6.22;;;8.50;99.90;;;7.77;100.00;100287.88;4170221;28;20025;-78
2023/12/08 03:21:23;;;;;;;41.83;5.47;;;8.50;99.90;;;7.80;100.00;100282.34;4153972;28;20029;-78
2023/12/08 03:23:24;;;;;;;36.80;6.78;;;8.50;99.90;;;7.81;100.00;100285.81;4155188;28;20026;-78
2023/12/08 03:25:25;;;;;;;51.35;6.30;;;8.50;99.90;;;7.82;100.00;100283.00;4154071;28;20056;-78
2023/12/08 03:27:26;;;;;;;25.60;4.45;;;8.50;99.90;;;7.74;100.00;100269.81;4155103;28;20026;-78
2023/12/08 03:29:27;;;;;;;21.60;4.97;;;8.60;99.90;;;7.75;100.00;100273.25;4153943;28;20033;-78
2023/12/08 03:31:31;;;;;;;14.18;6.75;;;8.60;99.90;;;7.76;100.00;100270.47;4155172;28;20076;-78
2023/12/08 03:33:32;;;;;;;26.55;8.98;;;8.60;99.90;;;7.78;100.00;100289.56;4156762;28;20060;-78
2023/12/08 03:35:32;;;;;;;23.08;7.78;;;8.60;99.90;;;7.72;100.00;100284.91;4164210;28;20029;-78
2023/12/08 03:37:33;;;;;;;26.40;8.93;;;8.50;99.90;;;7.82;100.00;100303.22;4158498;28;20038;-78
2023/12/08 03:39:34;;;;;;;30.98;9.85;;;8.60;99.90;;;7.83;100.00;100307.47;4137694;28;20398;-79
2023/12/08 03:41:35;;;;;;;18.35;7.13;;;8.60;99.90;;;7.92;100.00;100334.63;4154943;28;20038;-78
2023/12/08 03:43:36;;;;;;;43.47;6.97;;;8.60;99.90;;;8.02;100.00;100330.16;4153636;28;20030;-78
2023/12/08 03:45:37;;;;;;;36.65;5.47;;;8.60;99.90;;;8.25;100.00;100324.28;4153589;28;20060;-79
2023/12/08 03:47:37;;;;;;;33.00;4.82;;;8.80;99.90;;;8.36;100.00;100323.28;4153913;28;20018;-78
2023/12/08 03:49:38;;;;;;;35.22;5.50;;;9.00;99.90;;;8.49;100.00;100325.50;4137333;28;20034;-78
2023/12/08 03:51:39;;;;;;;36.42;5.38;;;9.10;99.90;;;8.52;100.00;100323.38;4154860;28;20032;-79
2023/12/08 03:53:40;;;;;;;23.50;4.35;;;9.10;99.90;;;8.52;100.00;100331.28;4154898;28;20022;-78
2023/12/08 03:55:41;;;;;;;44.67;5.22;;;9.20;99.90;;;8.45;100.00;100314.47;4153623;28;20034;-78
2023/12/08 03:57:41;;;;;;;28.52;5.18;;;9.20;99.90;;;8.51;100.00;100332.25;4153538;28;20041;-79
2023/12/08 03:59:42;;;;;;;17.15;2.97;;;9.20;99.90;;;8.42;100.00;100322.66;4154576;28;20030;-78
2023/12/08 04:01:43;;;;;;;21.77;3.28;;;9.10;99.90;;;8.46;100.00;100326.63;4137465;28;20034;-78
2023/12/08 04:03:45;;;;;;;15.50;3.28;;;9.10;99.90;;;8.44;100.00;100328.59;4154667;28;20053;-79
2023/12/08 04:05:45;;;;;;;27.48;4.40;;;9.10;99.90;;;8.40;100.00;100324.59;4169393;28;20029;-78
2023/12/08 04:07:46;;;;;;;25.75;3.97;;;9.20;99.90;;;8.46;100.00;100329.25;4136976;28;20022;-78
2023/12/08 04:09:47;;;;;;;18.33;3.47;;;9.10;99.90;;;8.48;100.00;100326.50;4153399;28;20041;-78
2023/12/08 04:11:48;;;;;;;28.10;4.93;;;9.10;99.90;;;8.37;100.00;100319.66;4153541;28;20026;-78
2023/12/08 04:13:49;;;;;;;27.85;3.85;;;9.10;99.90;;;8.46;100.00;100342.41;4153265;28;20485;-78
2023/12/08 04:15:50;;;;;;;23.45;3.78;;;9.10;99.90;;;8.36;100.00;100330.34;4156830;28;20046;-78
2023/12/08 04:17:50;;;;;;;25.15;3.28;;;9.10;99.90;;;8.46;100.00;100339.75;4153166;28;20029;-78
2023/12/08 04:19:51;;;;;;;21.65;4.85;;;9.10;99.90;;;8.47;100.00;100341.44;4169503;28;20022;-79
2023/12/08 04:21:52;;;;;;;26.50;3.20;;;9.10;99.90;;;8.46;100.00;100329.25;4152838;28;20038;-79
2023/12/08 04:23:54;;;;;;;23.65;3.03;;;9.10;99.90;;;8.45;100.00;100338.13;4154215;28;20464;-78
2023/12/08 04:25:54;;;;;;;21.35;3.50;;;9.10;99.90;;;8.44;100.00;100315.44;4168174;28;20128;-78
2023/12/08 04:27:55;;;;;;;21.40;3.35;;;9.10;99.90;;;8.46;100.00;100321.38;4154566;28;20030;-78
2023/12/08 04:29:56;;;;;;;18.95;4.22;;;9.10;99.90;;;8.45;100.00;100322.38;4155051;28;20021;-78
2023/12/08 04:31:57;;;;;;;24.08;3.45;;;9.10;99.90;;;8.44;100.00;100323.34;4158350;28;20022;-79
2023/12/08 04:33:58;;;;;;;22.63;3.10;;;9.10;99.90;;;8.43;100.00;100328.72;4153899;28;20034;-78
2023/12/08 04:35:58;;;;;;;24.95;3.67;;;9.10;99.90;;;8.36;100.00;100318.03;4156687;28;20025;-79
2023/12/08 04:37:59;;;;;;;18.20;3.58;;;9.10;99.90;;;8.39;100.00;100319.50;4160985;28;20079;-79
2023/12/08 04:40:00;;;;;;;20.92;3.72;;;9.10;99.90;;;8.44;100.00;100327.75;4154092;28;20029;-78
2023/12/08 04:42:01;;;;;;;24.45;3.35;;;9.10;99.90;;;8.51;100.00;100337.50;4152739;28;20029;-78
2023/12/08 04:44:02;;;;;;;25.00;3.60;;;9.10;99.90;;;8.45;100.00;100330.25;4154077;28;20033;-78
2023/12/08 04:46:03;;;;;;;16.10;2.35;;;9.10;99.90;;;8.55;100.00;100340.66;4152610;28;20034;-79
2023/12/08 04:48:04;;;;;;;16.13;2.95;;;9.10;99.90;;;8.56;100.00;100342.31;4154037;28;20089;-78
2023/12/08 04:50:06;;;;;;;20.10;2.95;;;9.20;99.90;;;8.59;100.00;100353.34;4152734;28;20101;-78
2023/12/08 04:52:07;;;;;;;27.50;4.00;;;9.20;99.90;;;8.52;100.00;100339.16;4154624;28;20094;-78
2023/12/08 04:54:08;;;;;;;24.95;3.15;;;9.20;99.90;;;8.53;100.00;100347.88;4169316;28;20025;-78
2023/12/08 04:56:09;;;;;;;20.38;3.28;;;9.20;99.90;;;8.57;100.00;100359.75;4120224;28;20126;-78
2023/12/08 04:58:10;;;;;;;22.98;3.28;;;9.20;99.90;;;8.61;100.00;100375.06;4153640;28;20037;-78
2023/12/08 05:00:12;;;;;;;22.48;3.38;;;9.20;99.90;;;8.56;100.00;100364.19;4153815;28;20030;-78
2023/12/08 05:02:13;;;;;;;14.82;2.75;;;9.20;99.90;;;8.57;100.00;100371.06;4168807;28;20053;-79
2023/12/08 05:04:13;;;;;;;16.00;3.67;;;9.20;99.90;;;8.58;100.00;100385.03;4153663;28;20088;-78
2023/12/08 05:06:15;;;;;;;24.38;3.63;;;9.20;99.90;;;8.56;100.00;100385.22;4154996;28;20030;-78
2023/12/08 05:08:16;;;;;;;14.73;4.75;;;9.20;99.90;;;8.62;100.00;100386.41;4152853;28;20516;-78
2023/12/08 05:10:17;;;;;;;19.85;3.17;;;9.20;99.90;;;8.59;100.00;100390.16;4152561;28;20034;-78
2023/12/08 05:12:18;;;;;;;25.65;4.03;;;9.20;99.90;;;8.56;100.00;100385.22;4152451;28;20025;-78
2023/12/08 05:14:19;;;;;;;14.40;4.00;;;9.20;99.90;;;8.53;100.00;100374.16;4153391;28;20038;-78
2023/12/08 05:16:20;;;;;;;24.48;5.85;;;9.20;99.90;;;8.58;100.00;100391.13;4153484;28;20042;-78
2023/12/08 05:18:21;;;;;;;19.02;7.38;;;9.20;99.90;;;8.58;100.00;100390.28;4152641;28;20120;-78
2023/12/08 05:20:22;;;;;;;29.80;10.25;;;9.20;99.90;;;8.56;100.00;100390.47;4153662;28;20029;-78
2023/12/08 05:22:22;;;;;;;25.08;8.70;;;9.20;99.90;;;8.52;100.00;100388.28;4152988;28;20040;-78
2023/12/08 05:24:23;;;;;;;19.02;8.18;;;9.20;99.90;;;8.57;100.00;100404.44;4152220;28;20559;-78
2023/12/08 05:26:25;;;;;;;17.85;5.97;;;9.20;99.90;;;8.58;100.00;100414.78;4161049;28;20445;-79
2023/12/08 05:28:25;;;;;;;14.70;4.97;;;9.20;99.90;;;8.54;100.00;100413.44;4152013;28;20029;-79
2023/12/08 05:30:27;;;;;;;19.73;4.97;;;9.20;99.90;;;8.48;100.00;100411.44;4140872;28;20053;-79
2023/12/08 05:32:28;;;;;;;16.58;3.15;;;9.20;99.90;;;8.54;100.00;100418.69;4153277;28;20024;-79
2023/12/08 05:34:29;;;;;;;21.95;3.75;;;9.20;99.90;;;8.55;100.00;100422.97;4153309;28;20052;-78
2023/12/08 05:36:30;;;;;;;19.63;3.58;;;9.20;99.90;;;8.46;100.00;100408.09;4152989;28;20030;-79
2023/12/08 05:38:31;;;;;;;18.42;4.05;;;9.20;99.90;;;8.53;100.00;100426.75;4152861;28;20033;-78
2023/12/08 05:40:31;;;;;;;14.10;3.47;;;9.20;99.90;;;8.53;100.00;100426.75;4151151;28;20029;-78
2023/12/08 05:42:32;;;;;;;24.75;3.83;;;9.20;99.90;;;8.53;100.00;100432.00;4142930;28;20025;-79
2023/12/08 05:44:33;;;;;;;18.40;3.35;;;9.20;99.90;;;8.48;100.00;100429.84;4152235;28;20424;-79
2023/12/08 05:46:34;;;;;;;21.05;4.07;;;9.10;99.90;;;8.41;100.00;100420.06;4135420;28;20042;-79
2023/12/08 05:48:35;;;;;;;17.15;2.80;;;9.10;99.90;;;8.38;100.00;100423.81;4151178;28;20026;-79
2023/12/08 05:50:36;;;;;;;11.15;2.42;;;9.10;99.90;;;8.31;100.00;100422.75;4153083;28;20045;-79
2023/12/08 05:52:37;;;;;;;21.27;3.30;;;9.00;99.90;;;8.28;100.00;100439.63;4151118;28;20029;-78
2023/12/08 05:54:38;;;;;;;18.85;2.45;;;9.00;99.90;;;8.30;100.00;100457.91;4151662;28;20030;-78
2023/12/08 05:56:39;;;;;;;21.63;3.05;;;9.00;99.90;;;8.27;100.00;100447.66;4152779;28;20034;-78
2023/12/08 05:58:40;;;;;;;17.50;2.95;;;8.90;99.90;;;8.26;100.00;100448.63;4152948;28;20022;-79
2023/12/08 06:00:41;;;;;;;19.13;2.92;;;8.90;99.90;;;8.21;100.00;100432.47;4151450;28;20544;-79
2023/12/08 06:02:42;;;;;;;21.50;3.78;;;8.90;99.90;;;8.30;100.00;100455.28;4148570;28;20025;-79
2023/12/08 06:04:43;;;;;;;21.25;4.22;;;8.90;99.90;;;8.28;100.00;100450.16;4151227;28;20022;-79
2023/12/08 06:06:44;;;;;;;20.55;3.42;;;8.90;99.90;;;8.28;100.00;100449.31;4152196;28;20026;-79
2023/12/08 06:08:45;;;;;;;20.88;3.15;;;8.90;99.90;;;8.27;100.00;100452.91;4152792;28;20048;-78
2023/12/08 06:10:46;;;;;;;14.18;3.03;;;8.90;99.90;;;8.24;100.00;100450.56;4151743;28;20030;-78
2023/12/08 06:12:47;;;;;;;17.92;3.55;;;8.90;99.90;;;8.22;100.00;100445.44;4149782;28;20093;-78
2023/12/08 06:14:48;;;;;;;15.02;3.33;;;8.90;99.90;;;8.13;100.00;100445.50;4151572;28;20030;-78
2023/12/08 06:16:48;;;;;;;12.35;3.40;;;8.90;99.90;;;8.13;100.00;100450.75;4152473;28;20073;-78
2023/12/08 06:18:49;;;;;;;12.55;3.45;;;8.90;99.90;;;8.14;100.00;100468.19;4152604;28;20034;-78
2023/12/08 06:20:50;;;;;;;23.20;2.97;;;8.80;99.90;;;8.10;100.00;100469.44;4151718;28;20478;-78
2023/12/08 06:22:51;;;;;;;20.05;3.55;;;8.80;99.90;;;8.06;100.00;100468.09;4151183;28;20477;-77
2023/12/08 06:24:52;;;;;;;13.05;1.98;;;8.70;99.90;;;7.95;100.00;100455.97;4151249;28;20045;-78
2023/12/08 06:26:52;;;;;;;14.90;2.53;;;8.70;99.90;;;8.02;100.00;100482.50;4151192;28;20014;-78
2023/12/08 06:28:53;;;;;;;25.40;3.80;;;8.70;99.90;;;8.05;100.00;100479.56;4152373;28;20037;-78
2023/12/08 06:30:54;;;;;;;22.92;3.58;;;8.70;99.90;;;8.10;100.00;100488.66;4152118;28;20022;-78
2023/12/08 06:32:55;;;;;;;19.55;2.83;;;8.70;99.90;;;8.13;100.00;100482.28;4152319;28;20034;-78
2023/12/08 06:34:56;;;;;;;13.07;2.67;;;8.80;99.90;;;8.12;100.00;100481.44;4137156;28;20410;-80
2023/12/08 06:36:57;;;;;;;14.80;3.35;;;8.80;99.90;;;8.16;100.00;100489.88;4148053;28;20030;-79
2023/12/08 06:38:58;;;;;;;18.00;3.45;;;8.80;99.90;;;8.17;100.00;100500.25;4135172;28;20081;-79
2023/12/08 06:40:59;;;;;;;15.82;2.70;;;8.80;99.90;;;8.15;100.00;100506.63;4149046;28;20052;-78
2023/12/08 06:42:59;;;;;;;14.70;2.28;;;8.80;99.90;;;8.02;100.00;100490.38;4145655;28;20030;-78
2023/12/08 06:45:02;;;;;;;15.32;3.22;;;8.70;99.90;;;7.97;100.00;100493.44;4152201;28;20034;-78
2023/12/08 06:47:03;;;;;;;14.65;2.60;;;8.60;99.90;;;7.88;100.00;100496.94;4151153;28;20022;-78
2023/12/08 06:49:05;;;;;;;14.73;2.95;;;8.50;99.90;;;7.79;100.00;100501.22;4150513;28;20036;-78
2023/12/08 06:51:06;;;;;;;19.77;2.90;;;8.50;99.90;;;7.72;100.00;100508.06;4149090;28;20018;-78
2023/12/08 06:53:07;;;;;;;16.25;2.83;;;8.40;99.90;;;7.67;100.00;100510.28;4165432;28;20041;-78
2023/12/08 06:55:08;;;;;;;13.52;3.45;;;8.40;99.90;;;7.65;100.00;100506.13;4151104;28;20375;-78
2023/12/08 06:57:09;;;;;;;16.92;2.70;;;8.40;99.90;;;7.71;100.00;100514.25;4151272;28;20052;-79
2023/12/08 06:59:10;;;;;;;17.60;3.28;;;8.40;99.90;;;7.75;100.00;100509.56;4151147;28;20026;-79
2023/12/08 07:01:11;;;;;;;17.58;2.75;;;8.50;99.90;;;7.86;100.00;100521.66;4148618;28;20050;-78
2023/12/08 07:03:11;;;;;;;13.95;2.28;;;8.50;99.90;;;7.84;100.00;100511.31;4151666;28;20022;-79
2023/12/08 07:05:12;;;;;;;29.58;8.60;;;8.60;99.90;;;7.97;100.00;100521.50;4151051;28;20034;-78
2023/12/08 07:07:15;;;;;;;15.77;4.38;;;8.60;99.90;;;7.93;100.00;100518.34;4134342;28;20077;-79
2023/12/08 07:09:16;;;;;;;18.33;7.75;;;8.60;99.90;;;7.94;100.00;100503.41;4152365;28;20029;-78
2023/12/08 07:11:17;;;;;;;36.28;8.73;;;8.60;99.90;;;7.97;100.00;100500.50;4150210;28;20022;-78
2023/12/08 07:13:17;;;;;;;30.25;11.40;;;8.60;99.90;;;7.96;100.00;100494.41;4150980;28;20026;-78
2023/12/08 07:15:20;;;;;;;62.72;24.77;;;8.60;99.90;;;7.91;100.00;100498.44;4152124;28;20057;-78
2023/12/08 07:17:21;;;;;;;67.45;28.60;;;8.50;99.90;;;7.84;100.00;100516.56;4151446;28;20033;-78
2023/12/08 07:19:22;;;;;;;48.15;19.40;;;8.50;99.90;;;7.69;100.00;100510.13;4151915;28;20131;-78
2023/12/08 07:21:22;;;;;;;39.72;15.48;;;8.40;99.90;;;7.60;100.00;100519.69;4147278;28;20022;-78
2023/12/08 07:23:23;;;;;;;31.40;11.82;;;8.30;99.90;;;7.45;100.00;100515.84;4143775;28;20034;-79
2023/12/08 07:25:24;;;;;;;17.98;6.10;;;8.20;99.90;;;7.33;100.00;100516.97;4151137;28;20026;-78
2023/12/08 07:27:25;;;;;;;20.15;5.35;;;8.00;99.90;;;7.24;100.00;100529.16;4150653;28;20026;-80
2023/12/08 07:29:26;;;;;;;24.25;8.65;;;7.90;99.90;;;7.13;100.00;100529.31;4150651;28;20022;-78
2023/12/08 07:31:27;;;;;;;35.95;10.43;;;7.90;99.90;;;7.08;100.00;100523.63;4129245;28;20034;-79
2023/12/08 07:33:28;;;;;;;88.32;32.65;;;7.80;99.90;;;7.01;100.00;100530.41;4146198;28;20018;-78
2023/12/08 07:35:28;;;;;;;38.72;16.83;;;7.70;99.90;;;6.88;100.00;100529.00;4151838;28;20033;-79
2023/12/08 07:37:29;;;;;;;51.30;21.40;;;7.60;99.90;;;6.84;100.00;100544.19;4150556;28;20040;-79
2023/12/08 07:39:30;;;;;;;170.57;61.30;;;7.60;99.90;;;6.72;100.00;100537.41;4149706;28;20030;-79
2023/12/08 07:41:32;;;;;;;177.88;66.30;;;7.50;99.90;;;6.68;100.00;100557.84;4150303;28;20084;-79
2023/12/08 07:43:33;;;;;;;156.10;59.88;;;7.40;99.90;;;6.66;100.00;100558.94;4149270;28;20026;-79
2023/12/08 07:45:33;;;;;;;52.05;22.45;;;7.40;99.90;;;6.62;100.00;100550.53;4149576;28;20390;-79
2023/12/08 07:47:34;;;;;;;27.17;11.45;;;7.30;99.90;;;6.62;100.00;100550.53;4149676;28;20094;-79
2023/12/08 07:49:35;;;;;;;22.00;6.68;;;7.30;99.90;;;6.57;100.00;100559.75;4149732;28;20029;-78
2023/12/08 07:51:37;;;;;;;12.75;3.85;;;7.20;99.90;;;6.47;100.00;100574.63;4150220;28;20026;-77
2023/12/08 07:53:37;;;;;;;23.77;9.32;;;7.20;99.90;;;6.42;100.00;100568.97;4150341;28;20125;-78
2023/12/08 07:55:38;;;;;;;20.88;9.23;;;7.10;99.90;;;6.37;100.00;100571.13;4150917;28;20038;-77
2023/12/08 07:57:39;;;;;;;22.33;9.63;;;7.10;99.90;;;6.30;100.00;100572.66;4149713;28;20096;-77
2023/12/08 07:59:40;;;;;;;25.50;10.90;;;7.00;99.90;;;6.25;100.00;100575.66;4149540;28;20033;-78
2023/12/08 08:01:41;;;;;;;39.17;19.48;;;7.00;99.90;;;6.25;100.00;100585.28;4152456;28;20516;-77
2023/12/08 08:03:42;;;;;;;46.28;23.63;;;7.00;99.90;;;6.24;100.00;100583.66;4152544;28;20083;-77
2023/12/08 08:05:43;;;;;;;57.05;27.60;;;7.00;99.90;;;6.30;100.00;100593.59;4153446;28;20033;-78
2023/12/08 08:07:43;;;;;;;68.10;30.42;;;7.00;99.90;;;6.24;100.00;100594.97;4152933;28;20030;-78
2023/12/08 08:09:44;;;;;;;55.60;28.20;;;7.00;99.90;;;6.26;100.00;100606.13;4152461;28;20057;-78
2023/12/08 08:11:45;;;;;;;60.05;30.05;;;7.00;99.90;;;6.23;100.00;100616.88;4152317;28;20478;-79
2023/12/08 08:13:46;;;;;;;30.10;14.02;;;7.00;99.90;;;6.26;100.00;100615.78;4152315;28;20081;-78
2023/12/08 08:15:47;;;;;;;18.58;8.82;;;7.00;99.90;;;6.21;100.00;100607.47;4152264;28;20054;-77
2023/12/08 08:17:48;;;;;;;26.17;12.60;;;7.00;99.90;;;6.24;100.00;100623.78;4152385;28;20049;-77
2023/12/08 08:19:49;;;;;;;43.60;21.05;;;7.00;99.90;;;6.28;100.00;100614.66;4152334;28;20467;-79
2023/12/08 08:21:50;;;;;;;36.03;16.42;;;7.00;99.90;;;6.34;100.00;100627.25;4152001;28;20034;-78